createdAt,value
2022-12-22T05:46:16.518Z,29.8
2022-12-22T05:47:25.868Z,27.9
2022-12-22T05:48:38.396Z,27
2022-12-22T05:49:43.490Z,27.4
2022-12-22T05:53:46.554Z,28.6
2022-12-22T05:54:56.800Z,31.2
2022-12-22T05:56:05.543Z,27.5
2022-12-22T05:57:14.712Z,27.5
2022-12-22T06:02:19.903Z,27.5
2022-12-22T06:03:29.676Z,30.7
2022-12-22T06:04:38.246Z,30
2022-12-22T06:05:48.086Z,28.2
2022-12-22T06:06:57.911Z,31.3
2022-12-22T06:17:58.907Z,36.1
2022-12-22T06:19:08.859Z,31.6
2022-12-22T06:20:19.370Z,33.2
2022-12-22T06:21:28.181Z,31.9
2022-12-22T06:22:37.802Z,28.1
2022-12-22T06:27:05.129Z,28.1
2022-12-22T06:28:14.284Z,25.6
2022-12-22T06:29:23.089Z,26
2022-12-22T06:30:33.703Z,26.6
2022-12-22T06:31:39.517Z,30.1
2022-12-22T06:35:25.552Z,28.1
2022-12-22T06:36:33.620Z,30
2022-12-22T06:37:41.872Z,30.2
2022-12-22T06:38:51.538Z,26
2022-12-22T06:40:04.801Z,27.2
2022-12-22T06:41:14.113Z,26
2022-12-22T06:42:22.960Z,24.4
2022-12-22T06:43:37.990Z,22.4
2022-12-22T06:44:48.576Z,25.8
2022-12-22T06:46:00.218Z,27
2022-12-22T06:47:09.799Z,27.3
2022-12-22T06:48:18.456Z,24.7
2022-12-22T06:49:26.587Z,23.2
2022-12-22T06:50:35.107Z,26.2
2022-12-22T06:55:38.227Z,26.2
2022-12-22T06:56:47.751Z,24.2
2022-12-22T06:57:56.984Z,24.9
2022-12-22T06:59:06.265Z,25.9
2022-12-22T07:00:14.542Z,26.6
2022-12-22T07:02:00.371Z,26.6
2022-12-22T07:03:08.713Z,28.6
2022-12-22T07:04:16.519Z,28.6
2022-12-22T07:05:24.897Z,33.1
2022-12-22T07:06:36.301Z,32.3
2022-12-22T08:14:00.928Z,34.6
2022-12-22T08:15:04.102Z,35.3
2022-12-22T08:16:13.883Z,36.9
2022-12-22T08:17:22.310Z,36.7
2022-12-22T08:18:33.729Z,37.8
2022-12-22T08:19:45.235Z,33.6
2022-12-22T08:20:54.906Z,32.9
2022-12-22T08:22:02.443Z,32.3
2022-12-22T08:23:10.133Z,32.6
2022-12-22T08:24:18.066Z,32.1
2022-12-22T08:25:27.627Z,30.7
2022-12-22T08:26:34.852Z,31.5
2022-12-22T08:27:42.300Z,28.8
2022-12-22T08:28:52.315Z,32.5
2022-12-22T08:29:59.859Z,32.6
2022-12-22T08:31:07.950Z,33.5
2022-12-22T08:32:15.263Z,36.6
2022-12-22T08:33:22.465Z,34.2
2022-12-22T08:34:30.435Z,31.1
2022-12-22T08:35:37.900Z,30.7
2022-12-22T08:36:46.033Z,31.1
2022-12-22T08:37:53.026Z,30.9
2022-12-22T08:39:02.103Z,33.3
2022-12-22T08:40:09.186Z,30
2022-12-22T08:41:16.857Z,29.6
2022-12-22T08:42:24.302Z,29.1
2022-12-22T08:43:31.719Z,32.1
2022-12-22T08:44:39.585Z,33.8
2022-12-22T08:45:47.574Z,28.8
2022-12-22T08:46:54.643Z,28.1
2022-12-22T08:48:01.649Z,29.6
2022-12-22T08:49:09.063Z,32.6
2022-12-22T08:50:16.349Z,31.9
2022-12-22T08:51:23.901Z,30.7
2022-12-22T08:52:31.389Z,30.2
2022-12-22T08:54:04.308Z,28.9
2022-12-22T08:54:47.739Z,30.9
2022-12-22T08:55:55.281Z,28.2
2022-12-22T08:57:06.626Z,31.8
2022-12-22T08:58:13.821Z,30
2022-12-22T08:59:21.293Z,27.9
2022-12-22T09:00:28.630Z,28.8
2022-12-22T09:01:37.800Z,27.8
2022-12-22T09:02:49.166Z,32.3
2022-12-22T09:03:57.605Z,26.9
2022-12-22T09:05:05.154Z,30.4
2022-12-22T09:06:12.835Z,26.7
2022-12-22T09:07:24.478Z,32.7
2022-12-22T09:08:32.608Z,33.7
2022-12-22T09:09:40.553Z,32.9
2022-12-22T09:10:47.652Z,32.2
2022-12-22T09:11:55.622Z,37.1
2022-12-22T09:13:03.191Z,32.4
2022-12-22T09:14:10.413Z,31.2
2022-12-22T09:15:17.539Z,35.5
2022-12-22T09:16:24.727Z,38.9
2022-12-22T09:17:31.848Z,37.9
2022-12-22T09:18:38.925Z,38.7
2022-12-22T09:19:46.233Z,36.5
2022-12-22T09:20:53.561Z,35.6
2022-12-22T09:22:01.040Z,40
2022-12-22T09:23:08.879Z,35.4
2022-12-22T09:24:17.176Z,37.5
2022-12-22T09:25:24.174Z,36.1
2022-12-22T09:26:31.524Z,41.7
2022-12-22T09:27:38.474Z,40.9
2022-12-22T09:28:50.309Z,37.6
2022-12-22T09:29:54.973Z,39.7
2022-12-22T09:31:02.704Z,37.3
2022-12-22T09:32:11.139Z,37.5
2022-12-22T09:33:19.264Z,37.4
2022-12-22T09:34:26.460Z,35.4
2022-12-22T09:35:33.441Z,32
2022-12-22T09:36:40.562Z,33.5
2022-12-22T09:37:47.750Z,32
2022-12-22T09:38:54.836Z,28
2022-12-22T09:40:02.146Z,32.8
2022-12-22T09:41:09.621Z,30.2
2022-12-22T09:42:19.953Z,33
2022-12-22T09:43:29.069Z,33.9
2022-12-22T09:44:36.047Z,34.7
2022-12-22T09:45:44.190Z,33.4
2022-12-22T09:46:51.389Z,32.8
2022-12-22T09:47:58.537Z,28.6
2022-12-22T09:49:05.716Z,27.2
2022-12-22T09:50:12.644Z,27.5
2022-12-22T09:51:26.320Z,26.6
2022-12-22T09:52:28.528Z,25.1
2022-12-22T09:53:38.735Z,28.8
2022-12-22T09:54:45.945Z,28.9
2022-12-22T09:55:52.793Z,27.3
2022-12-22T09:57:00.139Z,27.1
2022-12-22T09:58:07.711Z,28.1
2022-12-22T09:59:19.319Z,26.3
2022-12-22T10:00:26.889Z,27.7
2022-12-22T10:01:34.486Z,26.7
2022-12-22T10:02:51.989Z,30.6
2022-12-22T10:04:10.754Z,28
2022-12-22T10:05:20.324Z,27.8
2022-12-22T10:06:38.426Z,28.2
2022-12-22T10:07:55.960Z,24.8
2022-12-22T10:09:14.767Z,27.7
2022-12-22T10:10:18.499Z,24.9
2022-12-22T10:11:30.756Z,25.3
2022-12-22T10:12:37.833Z,25.6
2022-12-22T10:13:45.374Z,25
2022-12-22T10:14:52.885Z,25.4
2022-12-22T10:16:00.253Z,24.9
2022-12-22T10:17:07.993Z,25.7
2022-12-22T10:18:19.268Z,23.8
2022-12-22T10:19:26.894Z,24.2
2022-12-22T10:20:34.364Z,23.2
2022-12-22T10:21:46.538Z,27.8
2022-12-22T10:22:48.842Z,27.5
2022-12-22T10:24:01.368Z,28.1
2022-12-22T10:25:19.060Z,26.8
2022-12-22T10:26:28.330Z,23.9
2022-12-22T10:27:36.134Z,25.8
2022-12-22T10:28:42.156Z,25.1
2022-12-22T10:29:59.556Z,24.5
2022-12-22T10:31:17.184Z,27
2022-12-22T10:32:27.047Z,23.2
2022-12-22T10:33:34.186Z,24.8
2022-12-22T10:34:41.309Z,23.7
2022-12-22T10:35:59.139Z,27.8
2022-12-22T10:37:06.360Z,26.3
2022-12-22T10:38:20.921Z,25
2022-12-22T10:39:28.008Z,27.1
2022-12-22T10:40:35.156Z,26.7
2022-12-22T10:41:45.852Z,25.1
2022-12-22T10:42:53.035Z,25.9
2022-12-22T10:44:00.158Z,27.3
2022-12-22T10:45:07.224Z,28.4
2022-12-22T10:46:16.017Z,28
2022-12-22T10:47:23.115Z,26.9
2022-12-22T10:48:30.052Z,24.5
2022-12-22T10:50:49.903Z,21.8
2022-12-22T10:51:58.640Z,24.8
2022-12-22T10:53:13.970Z,28.1
2022-12-22T10:54:20.921Z,24.5
2022-12-22T10:55:33.167Z,25
2022-12-22T10:56:40.313Z,23.9
2022-12-22T10:57:47.472Z,24.5
2022-12-22T10:58:54.467Z,26
2022-12-22T11:00:05.324Z,24.2
2022-12-22T11:01:19.038Z,25.6
2022-12-22T11:02:26.194Z,22.7
2022-12-22T11:03:33.237Z,23.1
2022-12-22T11:04:41.139Z,24.4
2022-12-22T11:05:49.378Z,23.4
2022-12-22T11:06:56.745Z,24.5
2022-12-22T11:08:04.153Z,24.8
2022-12-22T11:09:32.934Z,30.4
2022-12-22T11:10:23.435Z,30.3
2022-12-22T11:11:30.711Z,29.7
2022-12-22T11:12:38.501Z,27.5
2022-12-22T11:13:50.903Z,27.3
2022-12-22T11:15:08.137Z,27
2022-12-22T11:16:15.391Z,29.9
2022-12-22T11:17:31.360Z,29.8
2022-12-22T11:18:41.723Z,32.1
2022-12-22T11:19:54.749Z,30.3
2022-12-22T11:21:07.234Z,30.5
2022-12-22T11:22:22.463Z,30.4
2022-12-22T11:23:30.459Z,30.2
2022-12-22T11:24:45.268Z,31.6
2022-12-22T11:26:02.708Z,33.2
2022-12-22T11:27:20.394Z,37.7
2022-12-22T11:28:35.731Z,38.5
2022-12-22T11:29:50.920Z,38.9
2022-12-22T11:31:06.153Z,39.2
2022-12-22T11:32:16.330Z,35.7
2022-12-22T11:33:33.588Z,32.8
2022-12-22T11:34:45.945Z,32.8
2022-12-22T11:36:03.159Z,34.2
2022-12-22T11:37:14.138Z,34.1
2022-12-22T11:38:26.507Z,33.4
2022-12-22T11:39:41.815Z,33.1
2022-12-22T11:40:59.036Z,32.6
2022-12-22T11:42:14.369Z,33.7
2022-12-22T11:43:27.555Z,29
2022-12-22T11:44:39.767Z,30.5
2022-12-22T11:45:58.204Z,33.5
2022-12-22T11:47:06.201Z,29.9
2022-12-22T11:48:20.944Z,29.8
2022-12-22T11:49:38.308Z,31.9
2022-12-22T11:50:57.911Z,33.1
2022-12-22T11:52:01.107Z,30.4
2022-12-22T11:53:16.691Z,43.2
2022-12-22T11:54:34.328Z,35.2
2022-12-22T11:55:49.580Z,31.7
2022-12-22T11:57:03.184Z,33
2022-12-22T11:58:20.540Z,32.1
2022-12-22T11:59:37.935Z,36.1
2022-12-22T12:01:12.947Z,33.7
2022-12-22T12:01:56.543Z,34.1
2022-12-22T12:03:11.498Z,35.2
2022-12-22T12:04:24.366Z,33.8
2022-12-22T12:05:36.976Z,30
2022-12-22T12:06:50.240Z,34.4
2022-12-22T12:08:08.003Z,32.5
2022-12-22T12:09:25.242Z,34.4
2022-12-22T12:10:38.856Z,33.3
2022-12-22T12:11:49.591Z,35.8
2022-12-22T12:12:59.304Z,34.7
2022-12-22T12:14:15.464Z,37.3
2022-12-22T12:15:30.355Z,32.4
2022-12-22T12:16:40.091Z,32.4
2022-12-22T12:17:52.255Z,30.1
2022-12-22T12:19:04.464Z,32.4
2022-12-22T12:20:21.707Z,30.2
2022-12-22T12:21:34.960Z,27.5
2022-12-22T12:22:42.104Z,32.5
2022-12-22T12:23:57.639Z,30.1
2022-12-22T12:25:15.284Z,32.4
2022-12-22T12:26:33.124Z,30.9
2022-12-22T12:27:46.662Z,32.1
2022-12-22T12:28:58.043Z,33.5
2022-12-22T12:31:26.636Z,31.4
2022-12-22T12:32:32.778Z,31.7
2022-12-22T12:33:51.007Z,31.9
2022-12-22T12:34:58.055Z,35.3
2022-12-22T12:36:07.998Z,32.8
2022-12-22T12:37:15.336Z,35.6
2022-12-22T12:39:05.437Z,33.8
2022-12-22T12:39:40.607Z,34.1
2022-12-22T12:40:56.830Z,33.7
2022-12-22T12:42:04.946Z,34
2022-12-22T12:43:19.768Z,32.4
2022-12-22T12:44:26.899Z,33.6
2022-12-22T12:45:37.106Z,30.5
2022-12-22T12:46:45.459Z,32.5
2022-12-22T12:47:55.779Z,30.9
2022-12-22T12:49:13.458Z,32
2022-12-22T12:50:31.048Z,29.8
2022-12-22T12:51:38.347Z,29.8
2022-12-22T12:52:48.345Z,32.3
2022-12-22T12:53:55.936Z,32.6
2022-12-22T12:55:18.688Z,31
2022-12-22T12:56:26.415Z,31
2022-12-22T12:57:39.088Z,35.9
2022-12-22T12:58:49.581Z,35.4
2022-12-22T12:59:56.594Z,31.2
2022-12-22T13:01:03.790Z,34.6
2022-12-22T13:02:14.486Z,38.5
2022-12-22T13:04:01.543Z,36.2
2022-12-22T13:04:38.817Z,36.4
2022-12-22T13:05:56.152Z,36.4
2022-12-22T13:07:06.228Z,37
2022-12-22T13:08:13.391Z,34.2
2022-12-22T13:10:33.612Z,34.7
2022-12-22T13:12:55.571Z,37
2022-12-22T13:14:02.838Z,36
2022-12-22T13:15:10.104Z,35.1
2022-12-22T13:16:27.731Z,38.3
2022-12-22T13:17:34.767Z,39.8
2022-12-22T13:18:57.180Z,41.9
2022-12-22T13:20:04.378Z,40.6
2022-12-22T13:21:51.337Z,37.9
2022-12-22T13:22:32.854Z,41.6
2022-12-22T13:23:58.280Z,39.1
2022-12-22T13:24:49.443Z,38.3
2022-12-22T13:25:55.168Z,41.3
2022-12-22T13:27:03.365Z,33.8
2022-12-22T13:28:10.577Z,36.6
2022-12-22T13:29:20.652Z,36.8
2022-12-22T13:30:33.886Z,35.1
2022-12-22T13:31:41.154Z,33.5
2022-12-22T13:32:48.115Z,32
2022-12-22T13:33:55.170Z,35.9
2022-12-22T13:36:22.124Z,32.3
2022-12-22T13:37:30.048Z,34.9
2022-12-22T13:38:37.807Z,36.7
2022-12-22T13:39:46.957Z,37.8
2022-12-22T13:41:04.573Z,37.5
2022-12-22T13:42:20.649Z,35.4
2022-12-22T13:43:27.857Z,36.2
2022-12-22T13:44:34.887Z,34
2022-12-22T13:45:42.060Z,33.2
2022-12-22T13:46:51.801Z,34.5
2022-12-22T13:47:58.917Z,37.5
2022-12-22T13:49:06.300Z,33
2022-12-22T13:50:14.798Z,35.5
2022-12-22T13:51:33.254Z,34.5
2022-12-22T13:52:40.265Z,37
2022-12-22T13:54:17.224Z,34
2022-12-22T13:54:59.441Z,33.9
2022-12-22T13:56:06.543Z,36.6
2022-12-22T13:57:16.763Z,39.2
2022-12-22T13:58:23.892Z,37.8
2022-12-22T13:59:30.979Z,37.9
2022-12-22T14:00:38.075Z,39.2
2022-12-22T14:01:45.479Z,40.4
2022-12-22T14:02:55.838Z,40.9
2022-12-22T14:04:03.464Z,44.5
2022-12-22T14:05:09.641Z,46.2
2022-12-22T14:06:17.717Z,42.5
2022-12-22T14:07:36.111Z,39.9
2022-12-22T14:08:43.189Z,44.6
2022-12-22T14:09:50.334Z,39.2
2022-12-22T14:11:00.068Z,43
2022-12-22T14:12:08.009Z,41.3
2022-12-22T14:13:17.824Z,45
2022-12-22T14:14:28.288Z,45
2022-12-22T14:15:38.957Z,45
2022-12-22T14:16:46.066Z,47.8
2022-12-22T14:17:53.895Z,43.9
2022-12-22T14:19:01.245Z,42.4
2022-12-22T14:20:09.001Z,41.6
2022-12-22T14:21:24.093Z,45.9
2022-12-22T14:22:31.099Z,45.5
2022-12-22T14:23:38.365Z,45.3
2022-12-22T14:24:45.293Z,41.3
2022-12-22T14:25:54.928Z,41.9
2022-12-22T14:27:02.252Z,46.3
2022-12-22T14:28:09.360Z,41.7
2022-12-22T14:29:21.428Z,48.2
2022-12-22T14:30:33.409Z,46.7
2022-12-22T14:31:40.141Z,45.7
2022-12-22T14:32:55.998Z,42.7
2022-12-22T14:34:02.816Z,44.6
2022-12-22T14:35:10.625Z,42.7
2022-12-22T14:36:24.735Z,44.2
2022-12-22T14:37:33.020Z,42.8
2022-12-22T14:38:38.775Z,46.6
2022-12-22T14:39:51.853Z,42.3
2022-12-22T14:40:59.999Z,42.1
2022-12-22T14:42:08.059Z,38.9
2022-12-22T14:43:15.409Z,46
2022-12-22T14:44:22.695Z,43.6
2022-12-22T14:45:29.711Z,43.2
2022-12-22T14:46:39.178Z,45.6
2022-12-22T14:47:44.539Z,43.5
2022-12-22T14:48:52.584Z,39.5
2022-12-22T14:50:00.781Z,41.3
2022-12-22T14:51:15.363Z,42.7
2022-12-22T14:52:22.521Z,41.2
2022-12-22T14:53:37.975Z,35.6
2022-12-22T14:54:50.389Z,36
2022-12-22T14:55:57.562Z,35.7
2022-12-22T14:57:13.282Z,37.4
2022-12-22T14:58:14.885Z,36
2022-12-22T14:59:29.876Z,38.5
2022-12-22T15:00:37.517Z,34.5
2022-12-22T15:01:45.289Z,34.4
2022-12-22T15:03:05.773Z,34.4
2022-12-22T15:04:22.944Z,38.3
2022-12-22T15:05:32.937Z,35.5
2022-12-22T15:06:40.382Z,38.2
2022-12-22T15:08:07.055Z,37.5
2022-12-22T15:08:58.901Z,36.4
2022-12-22T15:10:22.481Z,38.7
2022-12-22T15:11:33.217Z,39
2022-12-22T15:12:43.148Z,38.8
2022-12-22T15:13:52.932Z,34.2
2022-12-22T15:15:01.228Z,33.2
2022-12-22T15:16:08.738Z,39.7
2022-12-22T15:17:16.960Z,34.6
2022-12-22T15:18:24.341Z,41.2
2022-12-22T15:19:31.349Z,39.2
2022-12-22T15:20:39.468Z,43.1
2022-12-22T15:21:45.437Z,46.7
2022-12-22T15:22:52.603Z,46.7
2022-12-22T15:24:00.762Z,43.8
2022-12-22T15:25:08.353Z,40
2022-12-22T15:26:15.503Z,40.8
2022-12-22T15:27:22.768Z,39.1
2022-12-22T15:28:29.831Z,35.6
2022-12-22T15:29:37.331Z,43.7
2022-12-22T15:30:44.664Z,50.6
2022-12-22T15:31:51.828Z,41.4
2022-12-22T15:32:59.076Z,46.8
2022-12-22T15:34:06.646Z,46.3
2022-12-22T15:35:19.614Z,62
2022-12-22T15:36:39.553Z,74.4
2022-12-22T15:37:57.747Z,61.5
2022-12-22T15:39:08.830Z,59.3
2022-12-22T15:40:16.413Z,60.5
2022-12-22T15:41:24.078Z,44.7
2022-12-22T15:42:31.146Z,37
2022-12-22T15:44:46.210Z,43.7
2022-12-22T15:45:54.777Z,42.4
2022-12-22T15:47:03.228Z,36.8
2022-12-22T15:48:11.350Z,35.7
2022-12-22T15:49:27.583Z,33.1
2022-12-22T15:50:38.580Z,34.2
2022-12-22T15:51:46.789Z,36.8
2022-12-22T15:52:57.161Z,34.2
2022-12-22T15:54:05.548Z,37
2022-12-22T15:55:13.358Z,39.3
2022-12-22T15:56:20.893Z,34.9
2022-12-22T15:57:29.079Z,40.3
2022-12-22T15:58:36.318Z,43.1
2022-12-22T15:59:43.507Z,38.1
2022-12-22T16:00:50.855Z,37.1
2022-12-22T16:02:00.848Z,35.8
2022-12-22T16:03:05.503Z,35.4
2022-12-22T16:04:14.224Z,38.6
2022-12-22T16:05:22.113Z,38.4
2022-12-22T16:06:29.243Z,41.9
2022-12-22T16:07:37.218Z,40.8
2022-12-22T16:08:45.537Z,36.2
2022-12-22T16:09:54.122Z,38
2022-12-22T16:11:02.072Z,37.5
2022-12-22T16:12:09.414Z,39.2
2022-12-22T16:13:16.699Z,39.9
2022-12-22T16:14:24.471Z,37.3
2022-12-22T16:15:32.811Z,39.2
2022-12-22T16:16:40.298Z,38.3
2022-12-22T16:17:47.922Z,40.7
2022-12-22T16:18:55.960Z,39.5
2022-12-22T16:20:03.307Z,36.8
2022-12-22T16:21:11.280Z,39.5
2022-12-22T16:22:21.257Z,40.5
2022-12-22T16:23:31.740Z,38.8
2022-12-22T16:24:40.350Z,40.2
2022-12-22T16:25:47.543Z,41.7
2022-12-22T16:26:54.675Z,41.1
2022-12-22T16:28:02.152Z,42.4
2022-12-22T16:29:10.596Z,37
2022-12-22T16:30:19.621Z,38.2
2022-12-22T16:31:26.942Z,40.9
2022-12-22T16:32:34.081Z,43.9
2022-12-22T16:33:43.598Z,41.1
2022-12-22T16:34:50.781Z,45.4
2022-12-22T16:35:58.122Z,42.6
2022-12-22T16:37:06.084Z,44.7
2022-12-22T16:38:18.392Z,41
2022-12-22T16:39:22.026Z,43.6
2022-12-22T16:40:29.462Z,39.4
2022-12-22T16:41:37.763Z,36.3
2022-12-22T16:44:35.743Z,39
2022-12-22T16:45:54.454Z,37.1
2022-12-22T16:47:02.269Z,35.8
2022-12-22T16:48:09.683Z,39.2
2022-12-22T16:49:24.677Z,37.5
2022-12-22T16:50:27.333Z,34.4
2022-12-22T16:51:37.391Z,33.8
2022-12-22T16:52:44.657Z,35.5
2022-12-22T16:53:52.472Z,37.1
2022-12-22T16:55:01.680Z,40.3
2022-12-22T16:56:09.730Z,35.5
2022-12-22T16:57:20.157Z,40.5
2022-12-22T16:58:27.441Z,36.7
2022-12-22T16:59:36.353Z,34.9
2022-12-22T17:00:43.616Z,34.1
2022-12-22T17:01:51.439Z,33.3
2022-12-22T17:02:59.474Z,34.6
2022-12-22T17:04:09.831Z,35.8
2022-12-22T17:05:16.877Z,36.4
2022-12-22T17:06:30.286Z,33.6
2022-12-22T17:07:38.525Z,64.8
2022-12-22T17:08:46.772Z,68.9
2022-12-22T17:09:56.334Z,38.8
2022-12-22T17:11:09.992Z,35.8
2022-12-22T17:12:10.379Z,40
2022-12-22T17:13:26.148Z,39.8
2022-12-22T17:14:33.285Z,36.6
2022-12-22T17:15:40.812Z,38.5
2022-12-22T17:16:49.751Z,37.3
2022-12-22T17:17:56.725Z,34.5
2022-12-22T17:19:04.043Z,36.6
2022-12-22T17:20:11.469Z,32.8
2022-12-22T17:21:18.652Z,33
2022-12-22T17:22:25.891Z,33.8
2022-12-22T17:23:33.065Z,35
2022-12-22T17:24:43.058Z,33.1
2022-12-22T17:25:51.002Z,33.3
2022-12-22T17:27:02.594Z,36.8
2022-12-22T17:28:10.994Z,31.9
2022-12-22T17:29:18.350Z,37.2
2022-12-22T17:30:25.363Z,36.3
2022-12-22T17:31:33.251Z,35.2
2022-12-22T17:32:40.205Z,34
2022-12-22T17:33:48.256Z,35.7
2022-12-22T17:34:55.415Z,37.1
2022-12-22T17:36:03.710Z,38.2
2022-12-22T17:37:11.280Z,37
2022-12-22T17:38:24.558Z,39.8
2022-12-22T17:39:31.532Z,41.7
2022-12-22T17:40:38.644Z,41.3
2022-12-22T17:41:50.533Z,42.6
2022-12-22T17:42:54.164Z,38.6
2022-12-22T17:44:03.975Z,40.5
2022-12-22T17:45:17.541Z,42.3
2022-12-22T17:46:25.008Z,40.8
2022-12-22T17:47:40.634Z,41.7
2022-12-22T17:48:41.113Z,41.7
2022-12-22T17:49:48.264Z,43.8
2022-12-22T17:50:56.567Z,41.8
2022-12-22T17:52:05.587Z,47
2022-12-22T17:53:21.372Z,42.4
2022-12-22T17:54:29.423Z,45.1
2022-12-22T17:56:08.031Z,44.3
2022-12-22T17:56:44.577Z,40.8
2022-12-22T17:57:53.480Z,39.8
2022-12-22T17:59:00.803Z,41.4
2022-12-22T18:00:10.445Z,37.4
2022-12-22T18:01:16.514Z,41.8
2022-12-22T18:02:27.159Z,44.1
2022-12-22T18:03:35.896Z,37
2022-12-22T18:04:44.791Z,35.2
2022-12-22T18:05:52.991Z,36.2
2022-12-22T18:07:03.275Z,37.3
2022-12-22T18:08:10.325Z,36.5
2022-12-22T18:09:18.035Z,37.2
2022-12-22T18:10:25.059Z,37.3
2022-12-22T18:11:36.356Z,37.6
2022-12-22T18:12:43.030Z,36.7
2022-12-22T18:13:50.275Z,33
2022-12-22T18:14:57.257Z,38.1
2022-12-22T18:16:06.363Z,34.2
2022-12-22T18:17:17.487Z,37.3
2022-12-22T18:18:30.207Z,37.3
2022-12-22T18:19:37.607Z,38.6
2022-12-22T18:20:45.896Z,41
2022-12-22T18:21:55.710Z,37.5
2022-12-22T18:23:03.207Z,38.6
2022-12-22T18:24:11.151Z,42.1
2022-12-22T18:25:22.299Z,39.1
2022-12-22T18:26:29.341Z,40.4
2022-12-22T18:27:36.368Z,46.4
2022-12-22T18:28:43.656Z,44
2022-12-22T18:29:53.412Z,42.4
2022-12-22T18:31:00.330Z,44.5
2022-12-22T18:32:07.472Z,42
2022-12-22T18:33:14.563Z,41.8
2022-12-22T18:34:21.639Z,37
2022-12-22T18:35:28.903Z,40.1
2022-12-22T18:36:36.408Z,37.1
2022-12-22T18:37:43.563Z,36.8
2022-12-22T18:38:50.741Z,35.8
2022-12-22T18:39:57.910Z,36.2
2022-12-22T18:41:06.002Z,37.9
2022-12-22T18:42:13.072Z,37.8
2022-12-22T18:43:20.757Z,31.1
2022-12-22T18:44:28.344Z,35.8
2022-12-22T18:45:35.551Z,36.2
2022-12-22T18:46:42.668Z,37.7
2022-12-22T18:47:50.350Z,35.6
2022-12-22T18:49:03.621Z,34.8
2022-12-22T18:50:05.186Z,34.3
2022-12-22T18:51:17.757Z,37.4
2022-12-22T18:52:24.730Z,37.7
2022-12-22T18:53:31.880Z,33.1
2022-12-22T18:54:39.244Z,34.8
2022-12-22T18:55:46.170Z,39.4
2022-12-22T18:56:53.692Z,34.8
2022-12-22T18:58:01.030Z,33.1
2022-12-22T18:59:08.510Z,36.6
2022-12-22T19:00:26.005Z,40.5
2022-12-22T19:01:33.264Z,43.2
2022-12-22T19:02:41.211Z,42.6
2022-12-22T19:03:49.329Z,36.2
2022-12-22T19:04:56.457Z,34.8
2022-12-22T19:06:04.502Z,37.9
2022-12-22T19:07:11.613Z,36.1
2022-12-22T19:08:18.889Z,33.3
2022-12-22T19:09:25.871Z,36.1
2022-12-22T19:10:33.934Z,35.4
2022-12-22T19:11:42.185Z,36
2022-12-22T19:12:49.714Z,38.4
2022-12-22T19:13:56.952Z,37.3
2022-12-22T19:15:04.089Z,36.9
2022-12-22T19:16:11.925Z,35.9
2022-12-22T19:17:24.011Z,34.5
2022-12-22T19:18:34.047Z,33.3
2022-12-22T19:19:41.218Z,32.9
2022-12-22T19:20:48.523Z,34.7
2022-12-22T19:21:55.786Z,32.6
2022-12-22T19:23:04.597Z,36.6
2022-12-22T19:24:12.818Z,35.4
2022-12-22T19:25:20.119Z,35.7
2022-12-22T19:26:28.148Z,35.9
2022-12-22T19:27:35.393Z,34
2022-12-22T19:28:45.054Z,31.9
2022-12-22T19:29:54.748Z,32.4
2022-12-22T19:30:59.529Z,35.1
2022-12-22T19:32:07.194Z,33.5
2022-12-22T19:33:24.716Z,34.1
2022-12-22T19:34:32.480Z,37
2022-12-22T19:35:40.978Z,36
2022-12-22T19:36:48.062Z,36.6
2022-12-22T19:37:55.278Z,37
2022-12-22T19:39:05.373Z,37.2
2022-12-22T19:40:09.266Z,33.9
2022-12-22T19:41:19.479Z,41.8
2022-12-22T19:42:37.989Z,38.8
2022-12-22T19:43:45.016Z,37.4
2022-12-22T19:44:52.155Z,36.9
2022-12-22T19:46:00.974Z,40
2022-12-22T19:47:08.796Z,36.2
2022-12-22T19:48:19.454Z,38.2
2022-12-22T19:49:26.838Z,37.5
2022-12-22T19:50:35.769Z,38.2
2022-12-22T19:51:43.157Z,38.6
2022-12-22T19:52:50.132Z,38.9
2022-12-22T19:53:57.574Z,40.3
2022-12-22T19:55:05.573Z,36.5
2022-12-22T19:56:12.640Z,40.1
2022-12-22T19:57:24.870Z,36.5
2022-12-22T19:58:32.546Z,39.6
2022-12-22T19:59:39.899Z,42.1
2022-12-22T20:00:47.816Z,36.3
2022-12-22T20:01:54.902Z,38.9
2022-12-22T20:03:02.703Z,34
2022-12-22T20:04:09.538Z,37.1
2022-12-22T20:05:18.132Z,36.1
2022-12-22T20:06:25.288Z,36.4
2022-12-22T20:07:32.647Z,36.3
2022-12-22T20:08:39.857Z,39.3
2022-12-22T20:09:47.121Z,35.5
2022-12-22T20:10:58.559Z,36.6
2022-12-22T20:12:02.578Z,36.2
2022-12-22T20:13:10.123Z,40.9
2022-12-22T20:14:17.515Z,38.7
2022-12-22T20:15:28.395Z,36
2022-12-22T20:16:39.663Z,36.6
2022-12-22T20:17:46.837Z,35.5
2022-12-22T20:18:54.918Z,36.5
2022-12-22T20:20:02.352Z,38
2022-12-22T20:21:09.769Z,40.2
2022-12-22T20:22:24.021Z,36.7
2022-12-22T20:23:31.344Z,40.5
2022-12-22T20:24:38.942Z,37.6
2022-12-22T20:25:46.145Z,38.1
2022-12-22T20:26:57.038Z,34.8
2022-12-22T20:28:04.270Z,37.3
2022-12-22T20:29:14.443Z,35.4
2022-12-22T20:30:23.356Z,37.9
2022-12-22T20:31:30.898Z,39.2
2022-12-22T20:32:39.823Z,33
2022-12-22T20:33:47.377Z,33.9
2022-12-22T20:34:55.619Z,36.1
2022-12-22T20:36:03.027Z,31.7
2022-12-22T20:37:16.002Z,36.9
2022-12-22T20:38:23.944Z,36.1
2022-12-22T20:39:36.804Z,34.4
2022-12-22T20:40:46.881Z,38.3
2022-12-22T20:41:54.730Z,34
2022-12-22T20:43:03.626Z,37.8
2022-12-22T20:44:14.712Z,36.1
2022-12-22T20:45:24.151Z,32.5
2022-12-22T20:46:33.330Z,36.6
2022-12-22T20:47:40.988Z,38.9
2022-12-22T20:48:49.283Z,38.6
2022-12-22T20:49:57.406Z,38.2
2022-12-22T20:51:07.110Z,31.9
2022-12-22T20:52:14.447Z,31.1
2022-12-22T20:53:31.236Z,31.1
2022-12-22T20:54:41.862Z,35.1
2022-12-22T20:55:52.474Z,34
2022-12-22T20:56:59.745Z,32.4
2022-12-22T20:58:06.987Z,30.5
2022-12-22T20:59:18.726Z,33.3
2022-12-22T21:00:26.270Z,31.6
2022-12-22T21:01:35.669Z,30.9
2022-12-22T21:02:42.953Z,29.7
2022-12-22T21:03:50.275Z,32.5
2022-12-22T21:04:58.291Z,34.6
2022-12-22T21:06:05.419Z,35.6
2022-12-22T21:07:24.055Z,35.4
2022-12-22T21:08:32.076Z,35.5
2022-12-22T21:09:40.414Z,38.3
2022-12-22T21:10:47.575Z,37.3
2022-12-22T21:11:56.110Z,39
2022-12-22T21:13:03.660Z,36
2022-12-22T21:14:11.831Z,35.8
2022-12-22T21:15:19.524Z,34.9
2022-12-22T21:16:26.808Z,35.2
2022-12-22T21:17:33.918Z,35.2
2022-12-22T21:18:41.456Z,33.2
2022-12-22T21:19:48.714Z,36.2
2022-12-22T21:20:55.823Z,36.2
2022-12-22T21:22:04.095Z,34.5
2022-12-22T21:23:11.678Z,34.9
2022-12-22T21:24:21.107Z,36.6
2022-12-22T21:25:28.570Z,34.9
2022-12-22T21:26:36.358Z,34.9
2022-12-22T21:27:43.938Z,33
2022-12-22T21:28:52.269Z,36.5
2022-12-22T21:29:59.867Z,33.5
2022-12-22T21:31:09.300Z,38.8
2022-12-22T21:32:16.523Z,35.2
2022-12-22T21:33:24.318Z,36.4
2022-12-22T21:34:31.562Z,34.4
2022-12-22T21:35:38.931Z,36
2022-12-22T21:36:46.825Z,32.3
2022-12-22T21:37:55.065Z,34.5
2022-12-22T21:39:02.493Z,31.6
2022-12-22T21:40:11.255Z,33
2022-12-22T21:41:22.569Z,33.1
2022-12-22T21:42:36.294Z,32.3
2022-12-22T21:43:44.546Z,30.2
2022-12-22T21:44:51.776Z,30.9
2022-12-22T21:45:58.789Z,31.1
2022-12-22T21:47:05.816Z,32.3
2022-12-22T21:48:18.676Z,34.2
2022-12-22T21:49:25.822Z,31.3
2022-12-22T21:50:33.869Z,34
2022-12-22T21:51:42.178Z,31
2022-12-22T21:52:50.423Z,34.7
2022-12-22T21:53:58.784Z,33.5
2022-12-22T21:55:07.364Z,32.1
2022-12-22T21:56:14.655Z,32.3
2022-12-22T21:57:22.758Z,34.3
2022-12-22T21:58:30.524Z,31.6
2022-12-22T21:59:39.648Z,30
2022-12-22T22:00:47.080Z,32.3
2022-12-22T22:01:56.046Z,29.6
2022-12-22T22:03:03.944Z,30.9
2022-12-22T22:04:12.394Z,32.5
2022-12-22T22:05:22.479Z,30.9
2022-12-22T22:06:38.986Z,33.7
2022-12-22T22:07:47.482Z,33.1
2022-12-22T22:08:55.277Z,30
2022-12-22T22:10:02.565Z,32.2
2022-12-22T22:11:11.017Z,31.9
2022-12-22T22:12:26.486Z,31.1
2022-12-22T22:13:33.714Z,33.1
2022-12-22T22:14:40.647Z,31.9
2022-12-22T22:15:49.139Z,33.7
2022-12-22T22:16:57.217Z,33.8
2022-12-22T22:18:07.410Z,38.3
2022-12-22T22:19:13.074Z,35.7
2022-12-22T22:20:21.585Z,33.1
2022-12-22T22:21:28.750Z,33.6
2022-12-22T22:22:37.571Z,35.1
2022-12-22T22:23:45.073Z,35.8
2022-12-22T22:24:52.603Z,31.7
2022-12-22T22:25:59.837Z,31.6
2022-12-22T22:27:08.040Z,31.1
2022-12-22T22:28:15.331Z,33.5
2022-12-22T22:29:22.771Z,32.2
2022-12-22T22:30:30.167Z,33.7
2022-12-22T22:31:38.304Z,34.2
2022-12-22T22:32:46.899Z,33.6
2022-12-22T22:33:55.340Z,34.7
2022-12-22T22:35:02.335Z,36.1
2022-12-22T22:36:12.189Z,33.5
2022-12-22T22:37:19.743Z,33.2
2022-12-22T22:38:27.037Z,33.1
2022-12-22T22:39:34.083Z,32.3
2022-12-22T22:40:42.383Z,34
2022-12-22T22:41:51.240Z,33.9
2022-12-22T22:42:59.775Z,30.2
2022-12-22T22:44:07.437Z,30.7
2022-12-22T22:45:14.712Z,32.4
2022-12-22T22:46:24.312Z,31.2
2022-12-22T22:47:33.067Z,29.6
2022-12-22T22:48:41.410Z,31.9
2022-12-22T22:49:50.361Z,36.1
2022-12-22T22:50:58.102Z,32.3
2022-12-22T22:52:06.521Z,32.8
2022-12-22T22:53:14.221Z,31.7
2022-12-22T22:54:21.467Z,31
2022-12-22T22:55:29.685Z,36
2022-12-22T22:56:37.596Z,35